Zapata, TX

10:58 PM CDT on September 19, 2014 (GMT -0500)
Zapata | Change Station
CLOSE
Current Station
Airport
Location: Zapata,
Elevation: 423 ft
Nearby Weather Stations

Elev 423 ft 26.97 °N, 99.25 °W | Updated 23 minutes ago

Mostly Cloudy
Mostly Cloudy
83 °F
Feels Like 88 °F
N
9
Wind Variable Wind from East

Today
High -- | Low -- °F
--% Chance of Precip.
Yesterday
High -- | Low -- °F
Precip. -- in
7:24 AM 7:36 PM
Waning Crescent, 15% visible
Pressure 29.87 in
Visibility 10.0 miles
Clouds Mostly Cloudy 4900 ft
Mostly Cloudy 5500 ft
Mostly Cloudy 7500 ft
Heat Index 88 °F
Dew Point 73 °F
Humidity 72%
Rainfall 0.00 in
Snow Depth Not available.
UV 0 out of 12
Pollen 10.50 out of 12
Air Quality Not available.
Flu Activity Not available.
METAR KAPY 200335Z AUTO 10008KT 10SM BKN049 BKN055 BKN075 28/22 A2987 RMK AO2 LTG DSNT S AND SW T02820227

More Conditions Fewer Conditions

Pressure 29.87 in
Visibility 10.0 miles
Clouds Mostly Cloudy 4900 ft
Mostly Cloudy 5500 ft
Mostly Cloudy 7500 ft
Heat Index 88 °F
Dew Point 73 °F
Humidity 72%
Rainfall 0.00 in
Snow Depth Not available.
UV 0 out of 12
Pollen 10.50 out of 12
Air Quality Not available.
Flu Activity Not available.
METAR KAPY 200335Z AUTO 10008KT 10SM BKN049 BKN055 BKN075 28/22 A2987 RMK AO2 LTG DSNT S AND SW T02820227

More Conditions Fewer Conditions

10-Day Weather Forecast

Almanac

Astronomy

Sep. 19, 2014 Rise Set
Actual Time 7:24 AM CDT 7:36 PM CDT
Civil Twilight 7:01 AM CDT 8:00 PM CDT
Nautical Twilight 6:34 AM CDT 8:27 PM CDT
Astronomical Twilight 6:06 AM CDT 8:54 PM CDT
Moon 3:29 AM CDT (9/19) 4:50 PM CDT (9/19)
Length of Visible Light 12h 58m
Length of Day
12h 12m
Tomorrow will be 1m 34s shorter.
Waning Crescent, 15% of the Moon is Illuminated
Today
Waning Crescent
Sep 24
New
Oct 1
First Quarter
Oct 8
Full
Oct 15
Last Quarter

Today's Extremes

State Highs State Lows

Community

WunderPhotos

Upload Photos

1,754,777 photos uploaded!

WunderBlogs® & News

Nearby

Snow Depth

Station Depth Elevation
No new snow has been reported.

Earthquake Activity

City Distance Mag. Time & Date
No recent earthquake activity has been reported nearby.
Minimum magnitude displayed is 2.5.

Coastal Water Temperatures

Place Temperature
No Stations Reporting

Nearby Weather Stations